createdAt,value
2023-02-14T00:01:25.498Z,55.30
2023-02-14T00:03:54.625Z,55.40
2023-02-14T00:06:24.058Z,56.00
2023-02-14T00:08:54.107Z,57.70
2023-02-14T00:11:22.413Z,56.80
2023-02-14T00:14:04.346Z,80.30
2023-02-14T00:16:32.614Z,56.80
2023-02-14T00:19:06.312Z,56.20
2023-02-14T00:21:37.131Z,53.90
2023-02-14T00:24:06.233Z,56.30
2023-02-14T00:26:34.655Z,55.40
2023-02-14T00:29:02.941Z,55.60
2023-02-14T00:31:31.045Z,55.00
2023-02-14T00:33:59.177Z,57.70
2023-02-14T00:36:27.586Z,58.20
2023-02-14T00:38:57.003Z,58.60
2023-02-14T00:41:25.269Z,58.50
2023-02-14T00:43:54.425Z,58.30
2023-02-14T00:46:24.390Z,60.10
2023-02-14T00:48:53.424Z,58.40
2023-02-14T00:51:21.985Z,57.20
2023-02-14T00:53:51.802Z,74.90
2023-02-14T00:56:22.146Z,52.30
2023-02-14T00:58:50.668Z,52.70
2023-02-14T01:01:19.408Z,57.90
2023-02-14T01:03:47.924Z,79.10
2023-02-14T01:06:16.123Z,56.20
2023-02-14T01:08:44.185Z,58.60
2023-02-14T01:11:15.624Z,54.50
2023-02-14T01:13:46.315Z,78.10
2023-02-14T01:16:16.602Z,55.30
2023-02-14T01:18:45.536Z,57.80
2023-02-14T01:21:16.195Z,57.00
2023-02-14T01:23:45.125Z,78.00
2023-02-14T01:26:14.266Z,55.60
2023-02-14T01:28:44.806Z,59.00
2023-02-14T01:31:15.242Z,66.10
2023-02-14T01:33:45.078Z,81.70
2023-02-14T01:36:18.037Z,58.80
2023-02-14T01:38:46.152Z,56.40
2023-02-14T01:41:14.534Z,54.40
2023-02-14T01:43:59.867Z,78.90
2023-02-14T01:46:29.294Z,56.80
2023-02-14T01:49:02.200Z,55.50
2023-02-14T01:51:33.049Z,54.30
2023-02-14T01:54:01.933Z,55.40
2023-02-14T01:56:36.312Z,56.00
2023-02-14T01:59:08.483Z,58.70
2023-02-14T02:01:36.835Z,58.30
2023-02-14T02:04:10.176Z,59.30
2023-02-14T02:06:41.369Z,58.30
2023-02-14T02:09:16.145Z,58.40
2023-02-14T02:11:44.608Z,57.60
2023-02-14T02:14:16.970Z,56.50
2023-02-14T02:17:13.043Z,55.70
2023-02-14T02:20:04.911Z,55.30
2023-02-14T02:23:13.507Z,54.50
2023-02-14T02:26:01.238Z,55.80
2023-02-14T02:29:07.817Z,57.00
2023-02-14T02:32:10.587Z,54.10
2023-02-14T02:35:05.532Z,59.70
2023-02-14T02:37:41.909Z,60.40
2023-02-14T02:40:23.355Z,59.30
2023-02-14T02:43:01.704Z,57.60
2023-02-14T02:46:01.912Z,58.30
2023-02-14T02:48:38.404Z,55.50
2023-02-14T02:51:36.155Z,55.90
2023-02-14T02:54:10.322Z,54.70
2023-02-14T02:56:47.560Z,56.50
2023-02-14T02:59:20.773Z,55.40
2023-02-14T03:01:53.381Z,56.80
2023-02-14T03:04:40.427Z,58.00
2023-02-14T03:07:23.702Z,58.10
2023-02-14T03:09:54.093Z,58.70
2023-02-14T03:12:48.413Z,59.30
2023-02-14T03:15:27.083Z,56.50
2023-02-14T03:18:05.373Z,58.50
2023-02-14T03:20:46.710Z,58.80
2023-02-14T03:23:22.818Z,59.20
2023-02-14T03:26:03.602Z,59.40
2023-02-14T03:28:38.704Z,59.70
2023-02-14T03:31:13.564Z,60.60
2023-02-14T03:33:50.155Z,75.70
2023-02-14T03:36:23.495Z,57.50
2023-02-14T03:38:57.698Z,53.60
2023-02-14T03:42:20.368Z,53.60
2023-02-14T03:45:29.361Z,78.60
2023-02-14T03:48:20.300Z,52.00
2023-02-14T03:51:25.060Z,54.70
2023-02-14T03:54:56.117Z,52.20
2023-02-14T03:58:12.008Z,51.10
2023-02-14T04:04:07.325Z,53.80
2023-02-14T04:06:36.159Z,55.20
2023-02-14T04:09:13.403Z,56.10
2023-02-14T04:14:40.267Z,49.40
2023-02-14T04:20:48.361Z,49.90
2023-02-14T04:23:31.611Z,50.60
2023-02-14T04:26:11.949Z,54.00
2023-02-14T04:28:45.881Z,55.10
2023-02-14T04:34:06.224Z,52.90
2023-02-14T04:36:34.262Z,54.20
2023-02-14T04:39:08.306Z,56.00
2023-02-14T04:41:36.397Z,56.00
2023-02-14T04:44:09.953Z,58.40
2023-02-14T04:46:48.183Z,57.50
2023-02-14T04:50:27.120Z,57.50
2023-02-14T04:53:31.059Z,58.60
2023-02-14T04:55:59.053Z,60.10
2023-02-14T04:58:36.196Z,65.70
2023-02-14T05:01:11.953Z,68.40
2023-02-14T05:11:35.800Z,46.60
2023-02-14T05:14:03.914Z,46.90
2023-02-14T05:16:32.029Z,45.70
2023-02-14T05:19:01.468Z,43.80
2023-02-14T05:21:33.041Z,44.40
2023-02-14T05:24:01.150Z,43.00
2023-02-14T05:26:29.422Z,44.40
2023-02-14T05:28:57.547Z,45.80
2023-02-14T05:31:25.967Z,47.10
2023-02-14T05:33:54.147Z,47.00
2023-02-14T05:36:23.611Z,48.10
2023-02-14T05:38:51.744Z,52.70
2023-02-14T05:41:19.814Z,52.90
2023-02-14T05:43:47.886Z,53.50
2023-02-14T05:46:16.033Z,52.90
2023-02-14T05:48:44.399Z,74.10
2023-02-14T05:51:12.844Z,51.60
2023-02-14T05:53:42.281Z,51.80
2023-02-14T05:56:10.374Z,51.00
2023-02-14T05:58:38.446Z,71.60
2023-02-14T06:01:06.706Z,48.30
2023-02-14T06:03:34.848Z,47.90
2023-02-14T06:06:02.985Z,48.90
2023-02-14T06:08:31.021Z,65.50
2023-02-14T06:11:00.713Z,46.60
2023-02-14T06:13:28.947Z,46.20
2023-02-14T06:15:56.956Z,47.90
2023-02-14T06:18:29.704Z,46.80
2023-02-14T06:20:58.123Z,46.90
2023-02-14T06:23:26.453Z,46.50
2023-02-14T06:25:54.640Z,46.20
2023-02-14T06:28:24.031Z,45.90
2023-02-14T06:30:52.491Z,44.90
2023-02-14T06:33:20.628Z,45.10
2023-02-14T06:35:48.742Z,44.70
2023-02-14T06:38:16.773Z,44.80
2023-02-14T06:40:44.840Z,43.70
2023-02-14T06:43:12.961Z,44.00
2023-02-14T06:45:43.795Z,44.50
2023-02-14T06:48:12.115Z,45.80
2023-02-14T06:50:40.230Z,46.20
2023-02-14T06:53:08.343Z,48.20
2023-02-14T06:55:36.379Z,49.60
2023-02-14T06:58:04.526Z,53.30
2023-02-14T07:00:32.794Z,51.80
2023-02-14T07:03:02.296Z,51.60
2023-02-14T07:05:30.386Z,53.80
2023-02-14T07:07:58.478Z,49.90
2023-02-14T07:10:26.622Z,48.00
2023-02-14T07:12:54.713Z,48.10
2023-02-14T07:15:22.851Z,47.50
2023-02-14T07:17:50.916Z,47.10
2023-02-14T07:20:21.108Z,45.80
2023-02-14T07:22:49.266Z,46.30
2023-02-14T07:25:17.626Z,45.50
2023-02-14T07:27:46.000Z,44.10
2023-02-14T07:30:15.022Z,43.90
2023-02-14T07:32:43.204Z,43.10
2023-02-14T07:35:12.556Z,44.80
2023-02-14T07:37:42.799Z,43.80
2023-02-14T07:40:14.836Z,44.10
2023-02-14T07:42:44.050Z,44.30
2023-02-14T07:45:22.009Z,44.90
2023-02-14T07:47:51.308Z,44.10
2023-02-14T07:50:20.063Z,44.40
2023-02-14T07:52:49.759Z,45.00
2023-02-14T07:55:19.275Z,44.60
2023-02-14T07:57:49.808Z,44.30
2023-02-14T08:00:18.938Z,44.40
2023-02-14T08:02:47.041Z,45.30
2023-02-14T08:05:15.460Z,45.30
2023-02-14T08:07:44.339Z,46.20
2023-02-14T08:10:14.012Z,46.90
2023-02-14T08:13:00.421Z,48.50
2023-02-14T08:15:47.668Z,48.90
2023-02-14T08:18:16.018Z,49.90
2023-02-14T08:20:44.169Z,50.50
2023-02-14T08:23:12.311Z,50.60
2023-02-14T08:25:42.028Z,50.50
2023-02-14T08:28:10.456Z,50.40
2023-02-14T08:30:38.972Z,50.60
2023-02-14T08:33:07.509Z,50.60
2023-02-14T08:35:36.045Z,52.10
2023-02-14T08:38:04.967Z,51.00
2023-02-14T08:40:34.185Z,51.40
2023-02-14T08:43:03.622Z,51.80
2023-02-14T08:45:32.075Z,51.20
2023-02-14T08:48:04.458Z,51.30
2023-02-14T08:50:32.778Z,49.10
2023-02-14T08:53:00.965Z,49.30
2023-02-14T08:55:29.127Z,48.70
2023-02-14T08:57:58.194Z,49.80
2023-02-14T09:00:28.003Z,50.00
2023-02-14T09:02:56.120Z,50.20
2023-02-14T09:05:24.438Z,50.60
2023-02-14T09:07:52.572Z,51.20
2023-02-14T09:10:20.817Z,51.20
2023-02-14T09:12:49.154Z,52.10
2023-02-14T09:15:17.330Z,53.30
2023-02-14T09:17:47.241Z,53.60
2023-02-14T09:20:16.706Z,54.90
2023-02-14T09:22:46.122Z,55.80
2023-02-14T09:25:15.824Z,56.50
2023-02-14T09:27:44.151Z,54.90
2023-02-14T09:30:13.454Z,54.70
2023-02-14T09:32:41.572Z,53.50
2023-02-14T09:35:11.267Z,54.30
2023-02-14T09:37:39.381Z,54.80
2023-02-14T09:40:08.506Z,54.30
2023-02-14T09:42:49.774Z,55.00
2023-02-14T09:45:21.491Z,54.00
2023-02-14T09:47:55.330Z,54.50
2023-02-14T09:50:34.400Z,52.70
2023-02-14T09:53:05.727Z,52.90
2023-02-14T09:55:43.615Z,53.20
2023-02-14T09:58:19.180Z,51.00
2023-02-14T10:00:50.157Z,49.00
2023-02-14T10:03:41.833Z,51.10
2023-02-14T10:06:22.433Z,46.30
2023-02-14T10:09:00.058Z,49.30
2023-02-14T10:11:29.696Z,49.70
2023-02-14T10:14:02.606Z,50.00
2023-02-14T10:16:34.758Z,48.10
2023-02-14T10:19:07.219Z,46.60
2023-02-14T10:21:43.094Z,47.00
2023-02-14T10:24:17.229Z,44.80
2023-02-14T10:26:47.153Z,44.40
2023-02-14T10:29:16.992Z,45.30
2023-02-14T10:31:55.546Z,45.40
2023-02-14T10:34:31.146Z,44.60
2023-02-14T10:37:19.953Z,44.30
2023-02-14T10:40:12.109Z,41.40
2023-02-14T10:42:51.248Z,40.90
2023-02-14T10:45:25.079Z,42.00
2023-02-14T10:47:59.072Z,40.90
2023-02-14T10:50:33.174Z,40.30
2023-02-14T10:53:12.212Z,40.50
2023-02-14T10:55:48.555Z,39.10
2023-02-14T10:58:20.378Z,37.60
2023-02-14T11:01:01.632Z,36.20
2023-02-14T11:03:30.738Z,37.40
2023-02-14T11:05:58.916Z,35.20
2023-02-14T11:08:30.641Z,34.30
2023-02-14T11:11:06.381Z,35.70
2023-02-14T11:13:36.837Z,35.00
2023-02-14T11:18:36.860Z,35.70
2023-02-14T11:21:08.200Z,24.80
2023-02-14T11:23:40.348Z,24.50
2023-02-14T11:28:37.426Z,22.90
2023-02-14T11:31:05.790Z,22.70
2023-02-14T11:33:39.403Z,21.90
2023-02-14T11:36:12.867Z,21.30
2023-02-14T11:38:44.553Z,21.80
2023-02-14T11:41:16.239Z,21.60
2023-02-14T11:43:48.469Z,21.20
2023-02-14T11:46:26.178Z,30.60
2023-02-14T11:49:00.014Z,20.40
2023-02-14T11:51:34.469Z,20.20
2023-02-14T11:54:06.474Z,20.00
2023-02-14T11:56:49.070Z,19.50
2023-02-14T11:59:30.715Z,19.70
2023-02-14T12:02:02.763Z,18.10
2023-02-14T12:04:45.654Z,18.50
2023-02-14T12:07:21.312Z,17.90
2023-02-14T12:10:08.456Z,18.40
2023-02-14T12:12:37.362Z,18.30
2023-02-14T12:15:25.725Z,18.00
2023-02-14T12:18:02.619Z,17.20
2023-02-14T12:20:41.744Z,16.90
2023-02-14T12:23:16.691Z,17.30
2023-02-14T12:25:51.752Z,17.00
2023-02-14T12:28:24.173Z,16.60
2023-02-14T12:30:52.327Z,16.70
2023-02-14T12:33:23.454Z,16.90
2023-02-14T12:35:58.425Z,16.70
2023-02-14T12:38:39.546Z,15.30
2023-02-14T12:41:24.680Z,15.50
2023-02-14T12:43:55.869Z,15.60
2023-02-14T12:46:45.003Z,25.30
2023-02-14T12:49:40.024Z,14.90
2023-02-14T12:52:25.383Z,15.40
2023-02-14T12:55:04.174Z,15.80
2023-02-14T12:57:40.555Z,15.90
2023-02-14T13:00:24.078Z,16.20
2023-02-14T13:03:31.516Z,16.20
2023-02-14T13:06:05.911Z,16.00
2023-02-14T13:08:54.179Z,14.90
2023-02-14T13:11:36.552Z,15.80
2023-02-14T13:14:21.692Z,15.40
2023-02-14T13:16:56.777Z,14.50
2023-02-14T13:19:36.714Z,14.90
2023-02-14T13:22:07.268Z,14.90
2023-02-14T13:24:40.901Z,14.60
2023-02-14T13:27:13.904Z,12.30
2023-02-14T13:29:48.225Z,12.90
2023-02-14T13:32:21.336Z,13.40
2023-02-14T13:34:51.036Z,13.20
2023-02-14T13:37:21.724Z,12.40
2023-02-14T13:39:52.442Z,13.10
2023-02-14T13:42:54.620Z,13.30
2023-02-14T13:46:05.461Z,13.10
2023-02-14T13:48:36.423Z,13.10
2023-02-14T13:51:08.271Z,13.60
2023-02-14T13:53:41.915Z,12.90
2023-02-14T13:56:33.674Z,12.40
2023-02-14T13:59:05.508Z,12.70
2023-02-14T14:01:40.533Z,12.40
2023-02-14T14:04:37.472Z,12.70
2023-02-14T14:07:29.978Z,11.60
2023-02-14T14:10:01.483Z,11.60
2023-02-14T14:12:43.589Z,11.40
2023-02-14T14:15:20.462Z,11.70
2023-02-14T14:18:10.851Z,9.70
2023-02-14T14:20:48.998Z,9.50
2023-02-14T14:23:35.120Z,8.90
2023-02-14T14:26:03.411Z,7.80
2023-02-14T14:28:34.166Z,7.40
2023-02-14T14:31:02.451Z,6.70
2023-02-14T14:33:32.273Z,7.00
2023-02-14T14:36:06.103Z,5.70
2023-02-14T14:38:46.196Z,4.70
2023-02-14T14:43:43.196Z,3.00
2023-02-14T14:46:14.308Z,16.90
2023-02-14T14:48:46.035Z,2.80
2023-02-14T14:51:24.149Z,1.40
2023-02-14T14:53:55.684Z,1.00
2023-02-14T14:56:25.857Z,15.40
2023-02-14T14:58:54.998Z,1.00
2023-02-14T15:01:32.849Z,1.00
2023-02-14T15:04:12.571Z,1.00
2023-02-14T15:06:42.603Z,3.80
2023-02-14T15:09:16.539Z,2.80
2023-02-14T15:12:03.538Z,1.00
2023-02-14T15:14:35.850Z,17.60
2023-02-14T15:17:06.398Z,1.00
2023-02-14T15:19:38.737Z,1.20
2023-02-14T15:22:18.572Z,1.70
2023-02-14T15:24:47.891Z,2.60
2023-02-14T15:27:17.903Z,1.90
2023-02-14T15:29:56.236Z,3.20
2023-02-14T15:32:26.019Z,3.00
2023-02-14T15:34:54.756Z,7.10
2023-02-14T15:37:26.142Z,7.50
2023-02-14T15:39:57.169Z,11.10
2023-02-14T15:42:27.709Z,3.40
2023-02-14T15:45:17.755Z,4.10
2023-02-14T15:47:48.475Z,4.20
2023-02-14T15:50:19.019Z,5.40
2023-02-14T15:52:49.473Z,6.40
2023-02-14T15:55:20.960Z,7.10
2023-02-14T15:57:55.725Z,7.10
2023-02-14T16:00:25.562Z,7.70
2023-02-14T16:02:57.707Z,8.30
2023-02-14T16:05:27.387Z,8.80
2023-02-14T16:08:03.584Z,8.70
2023-02-14T16:10:33.831Z,9.50
2023-02-14T16:13:06.551Z,9.90
2023-02-14T16:15:35.806Z,9.60
2023-02-14T16:18:08.209Z,9.40
2023-02-14T16:20:42.316Z,9.90
2023-02-14T16:23:21.297Z,10.60
2023-02-14T16:25:50.061Z,11.40
2023-02-14T16:28:18.711Z,11.30
2023-02-14T16:30:48.055Z,12.90
2023-02-14T16:33:21.139Z,15.40
2023-02-14T16:35:50.206Z,17.50
2023-02-14T16:38:21.657Z,19.00
2023-02-14T16:40:51.654Z,20.50
2023-02-14T16:43:21.545Z,21.70
2023-02-14T16:45:50.118Z,24.20
2023-02-14T16:50:47.508Z,24.80
2023-02-14T16:53:29.981Z,25.50
2023-02-14T16:55:58.760Z,26.30
2023-02-14T16:58:30.459Z,26.10
2023-02-14T17:00:59.465Z,27.10
2023-02-14T17:03:27.886Z,27.70
2023-02-14T17:05:58.073Z,26.70
2023-02-14T17:08:26.889Z,27.80
2023-02-14T17:10:58.570Z,29.10
2023-02-14T17:13:28.702Z,29.80
2023-02-14T17:15:57.594Z,40.70
2023-02-14T17:20:54.807Z,30.80
2023-02-14T17:23:24.406Z,31.00
2023-02-14T17:25:52.465Z,30.00
2023-02-14T17:28:21.954Z,29.80
2023-02-14T17:30:50.056Z,31.90
2023-02-14T17:33:18.145Z,33.10
2023-02-14T17:35:46.147Z,34.70
2023-02-14T17:38:14.494Z,36.40
2023-02-14T17:40:42.588Z,37.40
2023-02-14T17:43:10.656Z,37.80
2023-02-14T17:45:40.273Z,37.40
2023-02-14T17:48:10.829Z,36.20
2023-02-14T17:50:39.778Z,37.60
2023-02-14T17:53:07.893Z,37.90
2023-02-14T17:55:37.565Z,37.20
2023-02-14T17:58:05.609Z,36.20
2023-02-14T18:00:33.645Z,36.00
2023-02-14T18:03:03.696Z,33.70
2023-02-14T18:05:32.121Z,34.70
2023-02-14T18:08:00.161Z,36.90
2023-02-14T18:10:28.416Z,38.40
2023-02-14T18:12:56.461Z,38.50
2023-02-14T18:15:24.486Z,39.80
2023-02-14T18:17:52.630Z,39.40
2023-02-14T18:20:22.097Z,41.20
2023-02-14T18:22:50.198Z,39.60
2023-02-14T18:25:18.333Z,38.60
2023-02-14T18:27:46.422Z,39.00
2023-02-14T18:30:15.361Z,39.70
2023-02-14T18:32:43.457Z,40.60
2023-02-14T18:35:11.455Z,42.00
2023-02-14T18:37:41.987Z,40.50
2023-02-14T18:40:16.356Z,41.70
2023-02-14T18:42:44.386Z,41.20
2023-02-14T18:45:12.448Z,42.10
2023-02-14T18:47:40.631Z,42.00
2023-02-14T18:50:09.612Z,42.60
2023-02-14T18:52:37.754Z,41.60
2023-02-14T18:55:07.952Z,40.70
2023-02-14T18:57:36.866Z,41.80
2023-02-14T19:00:06.691Z,42.50
2023-02-14T19:02:35.118Z,41.10
2023-02-14T19:05:04.276Z,39.80
2023-02-14T19:07:32.853Z,41.20
2023-02-14T19:10:01.822Z,43.00
2023-02-14T19:12:33.734Z,42.70
2023-02-14T19:15:02.240Z,42.60
2023-02-14T19:17:30.401Z,46.90
2023-02-14T19:19:59.741Z,47.40
2023-02-14T19:22:27.897Z,49.30
2023-02-14T19:24:55.884Z,51.10
2023-02-14T19:27:23.949Z,49.70
2023-02-14T19:29:53.363Z,50.00
2023-02-14T19:32:21.430Z,49.70
2023-02-14T19:34:50.298Z,47.40
2023-02-14T19:37:18.410Z,44.80
2023-02-14T19:39:46.661Z,45.20
2023-02-14T19:42:15.039Z,44.40
2023-02-14T19:44:43.073Z,42.40
2023-02-14T19:47:25.616Z,46.10
2023-02-14T19:49:56.978Z,46.20
2023-02-14T19:52:26.790Z,46.10
2023-02-14T19:54:57.340Z,46.80
2023-02-14T19:57:25.533Z,46.30
2023-02-14T19:59:53.738Z,46.30
2023-02-14T20:02:23.395Z,46.70
2023-02-14T20:04:53.524Z,47.50
2023-02-14T20:07:22.032Z,45.80
2023-02-14T20:09:50.292Z,43.80
2023-02-14T20:12:18.312Z,44.10
2023-02-14T20:14:51.250Z,47.00
2023-02-14T20:17:19.883Z,60.30
2023-02-14T20:19:49.510Z,50.30
2023-02-14T20:22:17.521Z,50.10
2023-02-14T20:24:45.720Z,48.10
2023-02-14T20:27:13.956Z,46.10
2023-02-14T20:29:43.269Z,45.20
2023-02-14T20:32:12.141Z,45.50
2023-02-14T20:34:40.780Z,47.00
2023-02-14T20:37:11.255Z,46.10
2023-02-14T20:39:39.979Z,47.90
2023-02-14T20:42:08.647Z,50.40
2023-02-14T20:44:37.262Z,51.60
2023-02-14T20:47:06.400Z,52.80
2023-02-14T20:49:35.865Z,52.70
2023-02-14T20:52:04.644Z,52.30
2023-02-14T20:54:34.098Z,53.30
2023-02-14T20:57:02.117Z,52.20
2023-02-14T20:59:30.176Z,52.90
2023-02-14T21:01:59.791Z,50.80
2023-02-14T21:04:28.665Z,50.90
2023-02-14T21:06:57.993Z,49.50
2023-02-14T21:09:26.138Z,47.90
2023-02-14T21:11:55.553Z,48.60
2023-02-14T21:14:23.598Z,49.40
2023-02-14T21:16:51.973Z,52.10
2023-02-14T21:19:19.980Z,52.90
2023-02-14T21:21:48.047Z,51.80
2023-02-14T21:24:16.982Z,51.00
2023-02-14T21:26:45.729Z,50.00
2023-02-14T21:29:15.202Z,48.70
2023-02-14T21:31:43.440Z,47.00
2023-02-14T21:34:11.575Z,48.80
2023-02-14T21:36:39.595Z,50.50
2023-02-14T21:39:08.043Z,50.30
2023-02-14T21:41:38.087Z,49.90
2023-02-14T21:44:06.761Z,50.80
2023-02-14T21:46:41.072Z,50.90
2023-02-14T21:49:26.707Z,50.50
2023-02-14T21:51:54.775Z,48.40
2023-02-14T21:54:22.849Z,48.40
2023-02-14T21:56:50.898Z,48.10
2023-02-14T21:59:18.973Z,51.10
2023-02-14T22:01:48.441Z,53.10
2023-02-14T22:04:16.532Z,54.30
2023-02-14T22:06:44.680Z,54.80
2023-02-14T22:09:14.713Z,54.70
2023-02-14T22:11:42.822Z,52.50
2023-02-14T22:14:11.272Z,52.60
2023-02-14T22:16:39.412Z,52.20
2023-02-14T22:19:10.041Z,50.70
2023-02-14T22:21:38.176Z,49.20
2023-02-14T22:24:06.672Z,59.20
2023-02-14T22:26:38.816Z,49.40
2023-02-14T22:29:08.152Z,47.80
2023-02-14T22:31:38.528Z,45.80
2023-02-14T22:34:10.177Z,46.20
2023-02-14T22:36:38.560Z,46.10
2023-02-14T22:39:07.435Z,49.30
2023-02-14T22:41:37.677Z,51.30
2023-02-14T22:44:06.559Z,52.10
2023-02-14T22:46:36.677Z,51.80
2023-02-14T22:49:06.117Z,51.90
2023-02-14T22:51:38.955Z,51.30
2023-02-14T22:54:09.012Z,51.80
2023-02-14T22:56:39.160Z,52.10
2023-02-14T22:59:09.121Z,50.90
2023-02-14T23:01:37.472Z,50.30
2023-02-14T23:04:06.470Z,51.10
2023-02-14T23:06:37.212Z,50.20
2023-02-14T23:09:07.403Z,49.30
2023-02-14T23:11:37.723Z,47.90
2023-02-14T23:14:24.206Z,48.30
2023-02-14T23:17:09.868Z,46.20
2023-02-14T23:19:56.380Z,48.60
2023-02-14T23:22:28.009Z,49.20
2023-02-14T23:24:57.557Z,50.10
2023-02-14T23:27:27.609Z,50.50
2023-02-14T23:29:55.672Z,51.80
2023-02-14T23:32:23.758Z,51.80
2023-02-14T23:34:52.051Z,51.80
2023-02-14T23:37:20.172Z,52.00
2023-02-14T23:39:49.645Z,52.70
2023-02-14T23:42:17.909Z,51.20
2023-02-14T23:44:46.805Z,51.40
2023-02-14T23:47:16.247Z,50.50
2023-02-14T23:49:45.840Z,47.60
2023-02-14T23:52:14.915Z,48.50
2023-02-14T23:54:42.983Z,49.20
2023-02-14T23:57:12.439Z,49.20
2023-02-14T23:59:40.470Z,49.00
